Date,TemperatureHighF,TemperatureAvgF,TemperatureLowF,DewpointHighF,DewpointAvgF,DewpointLowF,HumidityHigh,HumidityAvg,HumidityLow,PressureMaxIn,PressureMinIn,WindSpeedMaxMPH,WindSpeedAvgMPH,GustSpeedMaxMPH,PrecipitationSumIn
2013-10-1,82.0,68.2,59.0,52.0,48.0,41.5,69,51,27,29.96,29.90,21,8,21,0.00
2013-10-2,77.8,65.6,57.0,52.1,47.2,40.0,75,54,28,29.95,29.90,21,7,21,0.00
2013-10-3,65.2,58.9,52.9,44.8,36.5,27.6,56,43,31,29.98,29.84,30,9,30,0.00
2013-10-4,71.0,54.2,34.8,32.8,17.4,6.1,67,29,8,30.22,29.97,28,5,28,0.00
2013-10-5,75.7,56.1,34.5,22.5,15.3,6.9,45,23,8,30.32,30.21,27,4,27,0.00
2013-10-6,79.7,57.8,37.3,19.5,12.7,2.6,38,20,5,30.25,30.08,17,2,17,0.00
2013-10-7,85.3,61.4,41.2,20.1,13.9,4.2,36,19,5,30.08,29.92,20,2,20,0.00
2013-10-8,77.3,63.2,51.4,44.5,30.8,17.2,69,33,15,29.94,29.76,17,4,17,0.00
2013-10-9,60.1,50.2,42.1,47.0,40.0,35.1,88,69,45,29.77,29.62,27,5,27,0.03
2013-10-10,64.5,52.9,40.9,41.9,37.2,34.5,82,57,37,29.99,29.77,22,6,22,0.00
2013-10-11,75.0,58.6,40.8,38.9,36.0,31.6,74,45,22,30.06,29.95,13,3,16,0.00
2013-10-12,77.2,60.7,43.5,40.0,34.4,28.4,69,41,18,30.00,29.88,14,2,14,0.00
2013-10-13,66.6,55.5,44.0,40.4,35.1,25.4,76,49,22,30.05,29.90,18,4,18,0.00
2013-10-14,71.8,54.7,35.3,37.2,29.8,21.0,81,43,19,30.16,30.02,18,2,18,0.00
2013-10-15,72.9,53.8,34.4,30.0,24.9,19.5,65,36,17,30.10,30.00,18,3,18,0.00
2013-10-16,71.7,53.3,36.3,26.6,20.5,13.9,54,31,12,30.22,30.09,18,2,18,0.00
2013-10-17,77.5,62.8,42.7,33.8,29.3,19.5,47,30,16,30.11,29.98,17,4,17,0.00
2013-10-18,78.2,58.9,38.7,30.2,21.9,13.1,55,27,10,30.13,30.02,15,2,15,0.00
2013-10-19,81.0,60.8,39.5,32.6,19.7,6.8,45,25,6,30.16,30.04,11,2,11,0.00
2013-10-20,84.1,65.9,43.2,33.0,20.2,2.8,39,20,5,30.05,29.93,14,2,14,0.00
2013-10-21,80.8,59.8,39.7,19.7,15.6,7.7,36,20,8,30.07,29.97,16,2,16,0.00
2013-10-22,80.2,57.8,37.6,25.1,19.1,12.6,46,25,10,30.10,29.97,15,2,15,0.00
2013-10-23,80.5,62.8,42.6,30.1,22.7,18.0,43,24,10,30.01,29.91,16,2,16,0.00
2013-10-24,82.4,69.2,60.1,36.4,27.4,16.9,35,23,9,30.07,29.95,18,4,18,0.00
2013-10-25,85.2,68.3,50.9,36.9,28.0,19.1,38,24,9,30.15,30.07,16,3,16,0.00
2013-10-26,82.1,61.6,44.9,28.6,23.0,16.5,47,26,9,30.19,30.06,14,2,14,0.00
2013-10-27,82.5,61.9,43.6,39.5,27.6,17.0,55,31,10,30.07,29.72,19,3,19,0.00
2013-10-28,55.9,49.4,43.4,44.3,39.2,33.2,93,69,44,29.89,29.70,19,3,19,0.18
2013-10-29,55.4,47.6,39.0,42.6,39.7,36.7,93,75,54,30.00,29.89,18,4,18,0.01
2013-10-30,62.4,50.5,38.8,39.8,36.6,32.7,80,61,34,30.10,29.98,18,3,18,0.00
2013-10-31,67.5,47.7,29.1,39.0,29.9,24.5,90,57,21,30.19,30.10,8,2,13,0.00